Terminal Aerodrome Forecast
Issued by NWS

Home | Current Version | Previous Version | Text Only | Print | Product List | Glossary On
Versions: 1 2 3 4 5 6 7 8 9 10 11 12 13 14 15 16
379
FTUS43 KAPX 202320
TAFAPN
TAF
KAPN 202320Z 2100/2124 23004KT P6SM BKN200
     FM210500 22005KT P6SM SCT200 WS015/23030KT
     FM210900 24005KT P6SM VCSH SCT060 BKN120 WS015/24030KT
     FM211200 24006KT P6SM SCT120 BKN200
     FM212000 28007KT P6SM VCSH SCT050 BKN100=

USA.gov is the U.S. government's official web portal to all federal, state and local government web resources and services.